HTDA/DAR METAR and TAF weather

Enter ICAO airport designator
Station Type Date Time Source
HTDA METAR 2018/12/10 17:00 UTC NOAA

HTDA 101700Z 02007KT 9999 FEW013 FEW015CB SCT080 27/24 Q1012 NOSIG


Station Type Date Time Source
HTDA Decoded METAR 2018/12/10 17:00 UTC NOAA

Dar Es Salaam Airport, Tanzania (HTDA) 06-52S 039-12E 55M
Dec 10, 2018 - 12:00 PM EST / 2018.12.10 1700 UTC
Wind: from the NNE (020 degrees) at 8 MPH (7 KT):0
Visibility: greater than 7 mile(s):0
Sky conditions: partly cloudy
Weather: Cumulonimbus clouds observed
Temperature: 80 F (27 C)
Dew Point: 75 F (24 C)
Relative Humidity: 83%
Pressure (altimeter): 29.88 in. Hg (1012 hPa)
ob: HTDA 101700Z 02007KT 9999 FEW013 FEW015CB SCT080 27/24 Q1012 NOSIG
cycle: 17

Station Type Date Time Source
HTDA TAF 2018/12/10 18:27 UTC NOAA

TAF TAF HTDA 101700Z 1018/1124 03010KT 9999 TS SCT014 FEW015CB BKN080
TEMPO 1102/1105 TSRA
BECMG 1108/1111 35010KT SCT026


Example: see airport list